createdAt,value
2018-04-14T00:02:10.368Z,12.77
2018-04-14T00:04:37.894Z,11.93
2018-04-14T00:07:05.435Z,13.32
2018-04-14T00:09:32.994Z,13.10
2018-04-14T00:12:02.040Z,14.52
2018-04-14T00:14:29.590Z,12.80
2018-04-14T00:16:57.120Z,14.10
2018-04-14T00:19:24.661Z,14.60
2018-04-14T00:21:52.191Z,14.57
2018-04-14T00:24:19.722Z,14.98
2018-04-14T00:26:47.266Z,14.32
2018-04-14T00:29:14.788Z,14.85
2018-04-14T00:31:42.301Z,16.23
2018-04-14T00:34:09.837Z,14.80
2018-04-14T00:36:37.402Z,15.02
2018-04-14T00:39:05.737Z,14.38
2018-04-14T00:41:33.271Z,14.50
2018-04-14T00:44:00.895Z,15.50
2018-04-14T00:46:28.443Z,15.32
2018-04-14T00:48:56.738Z,14.85
2018-04-14T00:51:25.001Z,15.43
2018-04-14T00:53:53.292Z,15.43
2018-04-14T00:56:21.588Z,14.82
2018-04-14T00:58:49.113Z,16.20
2018-04-14T01:01:16.720Z,16.27
2018-04-14T01:03:44.233Z,15.02
2018-04-14T01:06:11.749Z,16.30
2018-04-14T01:08:39.289Z,19.02
2018-04-14T01:11:06.831Z,18.48
2018-04-14T01:13:34.359Z,17.85
2018-04-14T01:16:01.961Z,16.23
2018-04-14T01:18:29.489Z,18.08
2018-04-14T01:20:57.878Z,15.98
2018-04-14T01:23:26.168Z,16.90
2018-04-14T01:25:53.745Z,17.30
2018-04-14T01:28:21.282Z,17.85
2018-04-14T01:30:48.806Z,18.42
2018-04-14T01:33:16.335Z,18.20
2018-04-14T01:35:43.846Z,19.12
2018-04-14T01:38:11.372Z,21.50
2018-04-14T01:40:38.898Z,18.85
2018-04-14T01:43:06.413Z,18.23
2018-04-14T01:45:33.940Z,19.30
2018-04-14T01:48:01.517Z,19.90
2018-04-14T01:50:29.022Z,21.37
2018-04-14T01:52:57.305Z,19.87
2018-04-14T01:55:24.826Z,23.05
2018-04-14T01:57:52.447Z,21.67
2018-04-14T02:00:19.983Z,23.10
2018-04-14T02:02:48.280Z,21.30
2018-04-14T02:05:15.777Z,23.50
2018-04-14T02:07:43.299Z,24.08
2018-04-14T02:10:10.808Z,23.33
2018-04-14T02:12:38.364Z,24.27
2018-04-14T02:15:05.869Z,24.08
2018-04-14T02:17:33.406Z,24.12
2018-04-14T02:20:01.686Z,23.95
2018-04-14T02:22:29.958Z,25.07
2018-04-14T02:24:57.516Z,25.45
2018-04-14T02:27:25.028Z,25.85
2018-04-14T02:29:52.578Z,25.73
2018-04-14T02:32:20.096Z,25.77
2018-04-14T02:34:47.630Z,24.42
2018-04-14T02:37:15.197Z,26.90
2018-04-14T02:39:42.753Z,24.33
2018-04-14T02:42:10.290Z,24.55
2018-04-14T02:44:37.815Z,26.00
2018-04-14T02:47:06.132Z,25.88
2018-04-14T02:49:33.673Z,25.23
2018-04-14T02:52:01.229Z,26.30
2018-04-14T02:54:28.958Z,27.05
2018-04-14T02:56:56.483Z,25.10
2018-04-14T02:59:24.052Z,25.90
2018-04-14T03:01:51.584Z,26.17
2018-04-14T03:04:19.109Z,26.17
2018-04-14T03:06:46.627Z,26.15
2018-04-14T03:09:14.149Z,26.60
2018-04-14T03:11:41.693Z,28.42
2018-04-14T03:14:09.228Z,26.80
2018-04-14T03:16:37.521Z,27.40
2018-04-14T03:19:05.802Z,24.70
2018-04-14T03:21:33.330Z,27.35
2018-04-14T03:24:00.853Z,30.07
2018-04-14T03:26:28.431Z,27.70
2018-04-14T03:28:55.990Z,27.60
2018-04-14T03:31:23.494Z,28.30
2018-04-14T03:33:51.032Z,27.67
2018-04-14T03:36:18.565Z,30.05
2018-04-14T03:38:46.127Z,31.08
2018-04-14T03:41:13.661Z,28.92
2018-04-14T03:43:41.204Z,30.90
2018-04-14T03:46:08.757Z,31.67
2018-04-14T03:48:37.038Z,31.40
2018-04-14T03:51:04.573Z,31.60
2018-04-14T03:53:32.177Z,30.45
2018-04-14T03:55:59.683Z,29.80
2018-04-14T03:58:27.209Z,29.77
2018-04-14T04:00:54.750Z,27.93
2018-04-14T04:03:22.316Z,26.42
2018-04-14T04:05:49.829Z,22.43
2018-04-14T04:08:17.345Z,27.15
2018-04-14T04:10:44.857Z,23.97
2018-04-14T04:13:13.146Z,24.55
2018-04-14T04:15:41.452Z,27.48
2018-04-14T04:18:08.984Z,29.10
2018-04-14T04:20:51.202Z,30.90
2018-04-14T04:23:30.678Z,31.55
2018-04-14T04:25:58.213Z,37.63
2018-04-14T04:28:25.756Z,38.00
2018-04-14T04:30:53.306Z,35.58
2018-04-14T04:33:20.945Z,35.67
2018-04-14T04:35:48.466Z,33.50
2018-04-14T04:38:16.010Z,31.93
2018-04-14T04:40:44.594Z,25.65
2018-04-14T04:43:12.109Z,28.73
2018-04-14T04:45:40.393Z,31.10
2018-04-14T04:48:08.664Z,36.97
2018-04-14T04:50:36.226Z,31.67
2018-04-14T04:53:03.749Z,27.25
2018-04-14T04:55:31.564Z,32.70
2018-04-14T04:57:59.108Z,29.50
2018-04-14T05:00:26.632Z,32.40
2018-04-14T05:02:54.193Z,38.50
2018-04-14T05:05:21.755Z,36.83
2018-04-14T05:07:49.279Z,40.50
2018-04-14T05:10:16.798Z,40.15
2018-04-14T05:12:44.325Z,44.20
2018-04-14T05:15:11.855Z,39.17
2018-04-14T05:17:39.374Z,50.80
2018-04-14T05:20:06.924Z,45.38
2018-04-14T05:22:34.507Z,51.07
2018-04-14T05:25:02.064Z,50.92
2018-04-14T05:27:29.604Z,55.95
2018-04-14T05:29:57.177Z,60.90
2018-04-14T05:32:24.726Z,60.70
2018-04-14T05:34:52.237Z,60.33
2018-04-14T05:37:19.746Z,57.85
2018-04-14T05:39:47.268Z,51.70
2018-04-14T05:42:14.796Z,59.28
2018-04-14T05:44:43.110Z,58.05
2018-04-14T05:47:10.778Z,56.88
2018-04-14T05:49:38.310Z,58.55
2018-04-14T05:52:05.832Z,50.65
2018-04-14T05:54:33.376Z,53.83
2018-04-14T05:57:00.877Z,53.42
2018-04-14T05:59:28.403Z,56.37
2018-04-14T06:01:55.936Z,54.00
2018-04-14T06:04:23.446Z,53.08
2018-04-14T06:06:50.994Z,40.80
2018-04-14T06:09:19.319Z,51.20
2018-04-14T06:11:46.832Z,47.90
2018-04-14T06:14:14.360Z,46.45
2018-04-14T06:16:41.906Z,50.33
2018-04-14T06:19:09.446Z,48.67
2018-04-14T06:21:36.965Z,48.38
2018-04-14T06:24:04.487Z,49.70
2018-04-14T06:26:32.020Z,60.03
2018-04-14T06:28:59.561Z,46.08
2018-04-14T06:31:28.776Z,52.15
2018-04-14T06:33:56.311Z,44.78
2018-04-14T06:36:23.833Z,51.15
2018-04-14T06:38:51.377Z,53.03
2018-04-14T06:41:18.936Z,49.95
2018-04-14T06:43:46.463Z,47.33
2018-04-14T06:46:14.048Z,53.38
2018-04-14T06:48:41.588Z,55.47
2018-04-14T06:51:09.881Z,52.67
2018-04-14T06:53:37.417Z,61.78
2018-04-14T06:56:05.684Z,60.33
2018-04-14T06:58:33.245Z,56.58
2018-04-14T07:01:00.775Z,65.60
2018-04-14T07:03:28.409Z,62.33
2018-04-14T07:05:55.994Z,68.37
2018-04-14T07:08:23.536Z,72.12
2018-04-14T07:10:51.061Z,65.20
2018-04-14T07:13:19.404Z,66.05
2018-04-14T07:15:46.946Z,71.25
2018-04-14T07:18:14.510Z,67.07
2018-04-14T07:20:42.016Z,64.82
2018-04-14T07:23:09.557Z,63.28
2018-04-14T07:25:37.070Z,73.40
2018-04-14T07:28:04.688Z,64.57
2018-04-14T07:30:32.209Z,62.58
2018-04-14T07:32:59.737Z,65.32
2018-04-14T07:35:27.249Z,60.80
2018-04-14T07:37:55.513Z,61.42
2018-04-14T07:40:23.843Z,56.70
2018-04-14T07:42:52.172Z,59.70
2018-04-14T07:45:19.914Z,55.95
2018-04-14T07:47:47.437Z,58.65
2018-04-14T07:50:15.008Z,60.73
2018-04-14T07:52:42.553Z,60.95
2018-04-14T07:55:10.842Z,64.30
2018-04-14T07:57:38.429Z,71.07
2018-04-14T08:00:05.944Z,77.50
2018-04-14T08:02:34.243Z,69.35
2018-04-14T08:05:02.556Z,65.43
2018-04-14T08:07:30.558Z,58.03
2018-04-14T08:09:58.092Z,68.50
2018-04-14T08:12:25.637Z,70.90
2018-04-14T08:14:53.180Z,72.37
2018-04-14T08:17:20.731Z,71.90
2018-04-14T08:19:48.256Z,73.90
2018-04-14T08:22:15.817Z,69.62
2018-04-14T08:24:43.378Z,63.72
2018-04-14T08:27:10.950Z,72.85
2018-04-14T08:29:38.510Z,68.45
2018-04-14T08:32:06.051Z,71.35
2018-04-14T08:34:33.566Z,69.30
2018-04-14T08:37:01.102Z,68.55
2018-04-14T08:39:29.403Z,62.90
2018-04-14T08:41:56.924Z,65.20
2018-04-14T08:44:24.449Z,66.07
2018-04-14T08:46:51.984Z,63.65
2018-04-14T08:49:19.528Z,71.78
2018-04-14T08:51:47.047Z,68.27
2018-04-14T08:54:14.563Z,67.87
2018-04-14T08:56:42.088Z,66.15
2018-04-14T08:59:09.648Z,62.42
2018-04-14T09:01:37.959Z,69.10
2018-04-14T09:04:05.534Z,64.90
2018-04-14T09:06:33.064Z,61.47
2018-04-14T09:09:00.614Z,61.53
2018-04-14T09:11:28.162Z,59.88
2018-04-14T09:13:56.533Z,60.33
2018-04-14T09:16:24.054Z,58.78
2018-04-14T09:18:51.622Z,57.62
2018-04-14T09:21:19.151Z,63.72
2018-04-14T09:23:46.786Z,60.58
2018-04-14T09:26:15.087Z,57.90
2018-04-14T09:28:42.635Z,58.35
2018-04-14T09:31:10.918Z,55.22
2018-04-14T09:33:38.530Z,48.00
2018-04-14T09:36:06.045Z,46.53
2018-04-14T09:38:33.629Z,53.13
2018-04-14T09:41:01.151Z,49.47
2018-04-14T09:43:28.752Z,44.92
2018-04-14T09:45:56.293Z,46.80
2018-04-14T09:48:23.838Z,46.30
2018-04-14T09:50:51.379Z,43.38
2018-04-14T09:53:19.687Z,45.75
2018-04-14T09:55:47.221Z,40.80
2018-04-14T09:58:14.753Z,39.17
2018-04-14T10:00:47.960Z,40.15
2018-04-14T10:03:21.086Z,38.87
2018-04-14T10:05:48.659Z,35.33
2018-04-14T10:08:16.185Z,32.50
2018-04-14T10:10:43.689Z,34.97
2018-04-14T10:13:11.218Z,34.55
2018-04-14T10:15:39.529Z,35.90
2018-04-14T10:18:07.069Z,32.40
2018-04-14T10:20:34.623Z,33.28
2018-04-14T10:23:02.176Z,34.03
2018-04-14T10:25:29.716Z,35.13
2018-04-14T10:27:58.140Z,32.17
2018-04-14T10:30:25.677Z,29.45
2018-04-14T10:32:53.253Z,32.60
2018-04-14T10:35:20.768Z,34.50
2018-04-14T10:37:48.383Z,32.22
2018-04-14T10:40:16.051Z,31.67
2018-04-14T10:42:43.564Z,26.27
2018-04-14T10:45:11.960Z,29.85
2018-04-14T10:47:39.457Z,30.88
2018-04-14T10:50:07.056Z,27.95
2018-04-14T10:52:34.659Z,29.53
2018-04-14T10:55:02.208Z,29.65
2018-04-14T10:57:29.751Z,27.35
2018-04-14T10:59:58.055Z,28.75
2018-04-14T11:02:25.606Z,27.87
2018-04-14T11:04:53.150Z,27.60
2018-04-14T11:07:21.489Z,29.57
2018-04-14T11:09:49.218Z,29.50
2018-04-14T11:12:16.755Z,29.50
2018-04-14T11:14:44.301Z,29.35
2018-04-14T11:17:12.578Z,28.17
2018-04-14T11:19:40.091Z,29.65
2018-04-14T11:22:07.647Z,28.65
2018-04-14T11:24:35.971Z,28.02
2018-04-14T11:27:03.537Z,27.52
2018-04-14T11:29:31.841Z,30.08
2018-04-14T11:31:59.355Z,28.25
2018-04-14T11:34:26.878Z,27.77
2018-04-14T11:36:54.415Z,28.10
2018-04-14T11:39:21.933Z,28.00
2018-04-14T11:41:49.450Z,25.52
2018-04-14T11:44:16.993Z,26.87
2018-04-14T11:46:44.577Z,27.98
2018-04-14T11:49:12.115Z,28.00
2018-04-14T11:51:39.628Z,27.45
2018-04-14T11:54:07.186Z,28.75
2018-04-14T11:56:34.713Z,28.70
2018-04-14T11:59:02.298Z,28.00
2018-04-14T12:01:29.814Z,26.52
2018-04-14T12:03:57.352Z,27.58
2018-04-14T12:06:24.888Z,27.92
2018-04-14T12:08:52.453Z,26.65
2018-04-14T12:11:19.991Z,29.17
2018-04-14T12:13:47.512Z,27.92
2018-04-14T12:16:15.012Z,29.07
2018-04-14T12:18:42.534Z,28.65
2018-04-14T12:21:10.049Z,31.05
2018-04-14T12:23:37.625Z,33.88
2018-04-14T12:26:05.944Z,34.70
2018-04-14T12:28:33.502Z,37.08
2018-04-14T12:31:01.100Z,37.00
2018-04-14T12:33:28.645Z,35.28
2018-04-14T12:35:56.179Z,38.50
2018-04-14T12:38:23.694Z,41.00
2018-04-14T12:40:51.215Z,41.67
2018-04-14T12:43:18.759Z,39.03
2018-04-14T12:45:46.301Z,35.75
2018-04-14T12:48:13.844Z,39.42
2018-04-14T12:50:41.362Z,39.58
2018-04-14T12:53:08.891Z,40.25
2018-04-14T12:55:36.439Z,41.65
2018-04-14T12:58:03.967Z,38.97
2018-04-14T13:00:31.488Z,37.90
2018-04-14T13:02:59.008Z,37.58
2018-04-14T13:05:26.537Z,38.43
2018-04-14T13:07:54.060Z,35.92
2018-04-14T13:10:21.629Z,36.83
2018-04-14T13:12:49.154Z,33.25
2018-04-14T13:15:17.460Z,35.67
2018-04-14T13:17:44.981Z,34.15
2018-04-14T13:20:12.522Z,35.15
2018-04-14T13:22:40.099Z,33.70
2018-04-14T13:25:08.396Z,38.22
2018-04-14T13:27:35.924Z,39.67
2018-04-14T13:30:03.431Z,45.00
2018-04-14T13:32:30.958Z,35.13
2018-04-14T13:34:59.193Z,33.45
2018-04-14T13:37:26.717Z,33.78
2018-04-14T13:39:54.238Z,32.47
2018-04-14T13:42:22.560Z,31.37
2018-04-14T13:44:50.123Z,27.92
2018-04-14T13:47:17.688Z,27.73
2018-04-14T13:49:45.949Z,27.80
2018-04-14T13:52:13.468Z,25.27
2018-04-14T13:54:40.977Z,27.00
2018-04-14T13:57:08.497Z,26.17
2018-04-14T13:59:36.773Z,28.00
2018-04-14T14:02:05.101Z,26.70
2018-04-14T14:04:32.637Z,26.00
2018-04-14T14:07:00.157Z,27.83
2018-04-14T14:09:27.721Z,28.50
2018-04-14T14:11:55.437Z,31.62
2018-04-14T14:14:22.973Z,27.27
2018-04-14T14:16:51.259Z,28.55
2018-04-14T14:19:18.776Z,27.83
2018-04-14T14:21:46.311Z,29.15
2018-04-14T14:24:13.954Z,27.35
2018-04-14T14:26:41.509Z,30.30
2018-04-14T14:29:09.033Z,29.10
2018-04-14T14:31:36.711Z,33.33
2018-04-14T14:34:05.015Z,30.12
2018-04-14T14:36:32.573Z,30.52
2018-04-14T14:39:00.082Z,30.45
2018-04-14T14:41:27.624Z,29.20
2018-04-14T14:43:55.138Z,30.08
2018-04-14T14:46:22.659Z,30.40
2018-04-14T14:48:50.206Z,31.50
2018-04-14T14:51:17.751Z,30.12
2018-04-14T14:53:45.291Z,25.67
2018-04-14T14:56:12.812Z,33.38
2018-04-14T14:58:40.401Z,35.13
2018-04-14T15:01:08.016Z,33.85
2018-04-14T15:03:36.360Z,31.73
2018-04-14T15:06:03.910Z,36.60
2018-04-14T15:08:31.465Z,35.17
2018-04-14T15:10:58.986Z,35.90
2018-04-14T15:13:27.296Z,28.27
2018-04-14T15:15:54.805Z,33.72
2018-04-14T15:18:22.318Z,34.15
2018-04-14T15:20:49.845Z,33.97
2018-04-14T15:23:17.361Z,32.47
2018-04-14T15:25:44.911Z,31.98
2018-04-14T15:28:12.480Z,28.73
2018-04-14T15:30:40.748Z,29.42
2018-04-14T15:33:08.389Z,29.42
2018-04-14T15:35:35.905Z,30.55
2018-04-14T15:38:03.480Z,37.78
2018-04-14T15:40:31.133Z,31.77
2018-04-14T15:42:58.751Z,30.23
2018-04-14T15:45:26.280Z,29.48
2018-04-14T15:47:54.599Z,32.22
2018-04-14T15:50:22.146Z,29.77
2018-04-14T15:52:49.713Z,29.02
2018-04-14T15:55:17.262Z,27.13
2018-04-14T15:57:44.807Z,29.10
2018-04-14T16:00:12.347Z,29.67
2018-04-14T16:02:39.941Z,32.97
2018-04-14T16:05:07.470Z,29.42
2018-04-14T16:07:35.029Z,39.13
2018-04-14T16:10:03.374Z,30.27
2018-04-14T16:12:30.893Z,31.08
2018-04-14T16:14:58.464Z,31.05
2018-04-14T16:17:26.013Z,35.25
2018-04-14T16:19:53.594Z,37.70
2018-04-14T16:22:21.179Z,40.10
2018-04-14T16:24:48.701Z,46.35
2018-04-14T16:27:16.273Z,36.60
2018-04-14T16:29:43.807Z,44.42
2018-04-14T16:32:12.758Z,37.65
2018-04-14T16:34:40.488Z,37.15
2018-04-14T16:37:08.029Z,35.67
2018-04-14T16:39:35.550Z,31.45
2018-04-14T16:42:03.144Z,33.20
2018-04-14T16:44:30.719Z,30.73
2018-04-14T16:46:58.245Z,36.50
2018-04-14T16:49:25.850Z,32.83
2018-04-14T16:51:53.340Z,30.48
2018-04-14T16:54:20.886Z,32.00
2018-04-14T16:56:48.401Z,33.10
2018-04-14T16:59:15.944Z,33.60
2018-04-14T17:01:44.249Z,31.52
2018-04-14T17:04:11.823Z,30.83
2018-04-14T17:06:39.737Z,31.62
2018-04-14T17:09:08.099Z,29.83
2018-04-14T17:11:35.638Z,31.73
2018-04-14T17:14:03.155Z,33.38
2018-04-14T17:16:31.454Z,29.48
2018-04-14T17:18:58.991Z,33.63
2018-04-14T17:21:26.492Z,32.28
2018-04-14T17:23:54.018Z,29.50
2018-04-14T17:26:22.425Z,32.42
2018-04-14T17:28:49.967Z,30.52
2018-04-14T17:31:17.502Z,31.02
2018-04-14T17:33:45.080Z,30.65
2018-04-14T17:36:13.377Z,36.45
2018-04-14T17:38:40.942Z,42.47
2018-04-14T17:41:08.503Z,43.15
2018-04-14T17:43:36.032Z,72.95
2018-04-14T17:46:04.336Z,75.60
2018-04-14T17:48:31.867Z,62.85
2018-04-14T17:51:00.174Z,68.72
2018-04-14T17:53:27.751Z,59.33
2018-04-14T17:55:55.271Z,52.88
2018-04-14T17:58:23.574Z,62.80
2018-04-14T18:00:51.133Z,59.58
2018-04-14T18:03:18.691Z,53.05
2018-04-14T18:05:46.264Z,53.13
2018-04-14T18:08:13.820Z,59.80
2018-04-14T18:10:42.356Z,53.95
2018-04-14T18:13:10.111Z,53.25
2018-04-14T18:15:37.662Z,53.97
2018-04-14T18:18:05.195Z,55.40
2018-04-14T18:20:32.716Z,62.50
2018-04-14T18:23:01.124Z,50.95
2018-04-14T18:25:28.626Z,56.42
2018-04-14T18:27:56.244Z,53.35
2018-04-14T18:30:23.752Z,53.85
2018-04-14T18:32:51.280Z,53.28
2018-04-14T18:35:18.821Z,53.53
2018-04-14T18:37:46.486Z,64.00
2018-04-14T18:40:14.137Z,54.42
2018-04-14T18:42:41.659Z,62.28
2018-04-14T18:45:09.190Z,60.83
2018-04-14T18:47:36.747Z,56.60
2018-04-14T18:50:04.279Z,52.72
2018-04-14T18:52:31.829Z,60.53
2018-04-14T18:54:59.445Z,63.22
2018-04-14T18:57:27.015Z,58.38
2018-04-14T18:59:55.543Z,68.68
2018-04-14T19:02:23.093Z,59.80
2018-04-14T19:04:50.621Z,56.65
2018-04-14T19:07:18.160Z,51.72
2018-04-14T19:09:45.706Z,58.00
2018-04-14T19:12:13.244Z,53.78
2018-04-14T19:14:40.809Z,57.28
2018-04-14T19:17:08.356Z,53.63
2018-04-14T19:19:35.874Z,48.80
2018-04-14T19:22:03.383Z,62.60
2018-04-14T19:24:31.057Z,54.47
2018-04-14T19:26:58.613Z,50.95
2018-04-14T19:29:26.138Z,50.70
2018-04-14T19:31:53.800Z,54.08
2018-04-14T19:34:21.327Z,89.30
2018-04-14T19:36:48.893Z,57.00
2018-04-14T19:39:16.422Z,56.15
2018-04-14T19:41:44.043Z,51.78
2018-04-14T19:44:11.680Z,56.83
2018-04-14T19:46:39.245Z,52.58
2018-04-14T19:49:06.944Z,51.35
2018-04-14T19:51:34.481Z,56.25
2018-04-14T19:54:02.042Z,52.03
2018-04-14T19:56:33.178Z,56.70
2018-04-14T19:59:00.818Z,55.22
2018-04-14T20:01:29.270Z,56.72
2018-04-14T20:03:56.818Z,101.40
2018-04-14T20:06:24.403Z,118.87
2018-04-14T20:08:52.055Z,70.12
2018-04-14T20:11:19.651Z,49.88
2018-04-14T20:13:47.173Z,51.80
2018-04-14T20:16:14.749Z,48.87
2018-04-14T20:18:42.311Z,48.92
2018-04-14T20:21:09.833Z,48.50
2018-04-14T20:23:37.391Z,53.03
2018-04-14T20:26:05.674Z,47.90
2018-04-14T20:28:33.264Z,47.28
2018-04-14T20:31:00.821Z,53.92
2018-04-14T20:33:28.352Z,45.40
2018-04-14T20:35:56.763Z,48.17
2018-04-14T20:38:24.297Z,47.03
2018-04-14T20:40:51.820Z,48.08
2018-04-14T20:43:19.349Z,46.17
2018-04-14T20:45:46.863Z,42.75
2018-04-14T20:48:14.427Z,50.15
2018-04-14T20:50:41.976Z,47.88
2018-04-14T20:53:10.287Z,46.55
2018-04-14T20:55:37.892Z,55.83
2018-04-14T20:58:05.425Z,55.38
2018-04-14T21:00:32.948Z,53.42
2018-04-14T21:03:00.476Z,48.75
2018-04-14T21:05:28.018Z,52.75
2018-04-14T21:07:55.567Z,52.55
2018-04-14T21:10:23.090Z,53.50
2018-04-14T21:12:50.626Z,55.80
2018-04-14T21:15:18.138Z,90.95
2018-04-14T21:17:45.652Z,54.05
2018-04-14T21:20:13.949Z,55.65
2018-04-14T21:22:41.478Z,56.45
2018-04-14T21:25:09.002Z,56.75
2018-04-14T21:27:37.306Z,63.47
2018-04-14T21:30:04.880Z,80.03
2018-04-14T21:32:33.168Z,89.87
2018-04-14T21:35:00.688Z,67.62
2018-04-14T21:37:29.023Z,64.62
2018-04-14T21:39:56.575Z,69.25
2018-04-14T21:42:24.142Z,71.82
2018-04-14T21:44:51.684Z,65.12
2018-04-14T21:47:19.201Z,77.07
2018-04-14T21:49:46.738Z,74.00
2018-04-14T21:52:14.258Z,76.30
2018-04-14T21:54:41.815Z,73.40
2018-04-14T21:57:10.117Z,70.87
2018-04-14T21:59:38.449Z,91.18
2018-04-14T22:02:05.969Z,85.38
2018-04-14T22:04:33.475Z,69.75
2018-04-14T22:07:00.981Z,79.47
2018-04-14T22:09:28.531Z,83.78
2018-04-14T22:11:56.072Z,67.12
2018-04-14T22:14:33.246Z,80.05
2018-04-14T22:17:00.786Z,71.43
2018-04-14T22:19:28.308Z,67.53
2018-04-14T22:21:55.837Z,81.53
2018-04-14T22:24:23.539Z,77.05
2018-04-14T22:26:51.062Z,73.87
2018-04-14T22:29:19.353Z,69.35
2018-04-14T22:31:46.911Z,73.95
2018-04-14T22:34:14.425Z,78.55
2018-04-14T22:36:41.935Z,84.25
2018-04-14T22:39:09.469Z,80.35
2018-04-14T22:41:37.802Z,75.78
2018-04-14T22:44:05.344Z,79.03
2018-04-14T22:46:32.907Z,75.57
2018-04-14T22:49:00.424Z,75.22
2018-04-14T22:51:28.757Z,81.00
2018-04-14T22:53:56.282Z,84.37
2018-04-14T22:56:23.940Z,78.37
2018-04-14T22:58:51.491Z,84.22
2018-04-14T23:01:19.850Z,75.43
2018-04-14T23:03:47.377Z,66.85
2018-04-14T23:06:14.899Z,75.50
2018-04-14T23:08:43.250Z,77.68
2018-04-14T23:11:10.760Z,77.07
2018-04-14T23:13:38.302Z,79.22
2018-04-14T23:16:06.691Z,80.00
2018-04-14T23:18:34.285Z,69.60
2018-04-14T23:21:01.929Z,65.82
2018-04-14T23:23:29.520Z,76.32
2018-04-14T23:25:57.034Z,87.03
2018-04-14T23:28:24.545Z,91.20
2018-04-14T23:30:52.073Z,100.68
2018-04-14T23:33:19.633Z,316.27
2018-04-14T23:35:47.180Z,115.25
2018-04-14T23:38:14.698Z,80.20
2018-04-14T23:40:42.236Z,78.97
2018-04-14T23:43:09.789Z,85.00
2018-04-14T23:45:37.327Z,80.00
2018-04-14T23:48:04.882Z,91.37
2018-04-14T23:50:32.401Z,100.57
2018-04-14T23:53:00.721Z,108.97
2018-04-14T23:55:28.254Z,274.12
2018-04-14T23:57:55.787Z,307.37
